Time;durP1;ratioP1;P1;durP2;ratioP2;P2;SDS_P1;SDS_P2;PMS_P1;PMS_P2;Temp;Humidity;BMP_temperature;BMP_pressure;BME280_temperature;BME280_humidity;BME280_pressure;Samples;Min_cycle;Max_cycle;Signal;HPM_P1;HPM_P2
2022/08/02 00:01:27;;;;;;;4.30;1.33;;;;;;;24.58;42.44;101631.78;5042674;28;20045;-66
2022/08/02 00:03:53;;;;;;;1.88;1.20;;;;;;;24.55;42.11;101629.44;5041909;28;20029;-66
2022/08/02 00:06:18;;;;;;;1.42;1.10;;;;;;;24.53;42.46;101626.06;5028003;28;20017;-65
2022/08/02 00:08:43;;;;;;;2.08;1.30;;;;;;;24.52;42.15;101626.25;5042389;28;20021;-66
2022/08/02 00:11:09;;;;;;;5.97;1.25;;;;;;;24.49;42.35;101622.03;5023920;28;20104;-65
2022/08/02 00:13:34;;;;;;;1.88;1.38;;;;;;;24.49;42.74;101630.25;5043931;28;20051;-66
2022/08/02 00:16:00;;;;;;;3.33;1.48;;;;;;;24.43;42.38;101611.88;5042143;28;20110;-66
2022/08/02 00:18:25;;;;;;;3.67;1.35;;;;;;;24.44;42.05;101626.41;5041912;28;20041;-66
2022/08/02 00:20:50;;;;;;;3.60;1.20;;;;;;;24.43;41.94;101617.34;5033447;28;20372;-66
2022/08/02 00:23:16;;;;;;;2.70;1.33;;;;;;;24.43;42.77;101622.84;5026732;28;20037;-66
2022/08/02 00:25:41;;;;;;;1.17;1.00;;;;;;;24.43;42.89;101622.00;5042258;28;20083;-66
2022/08/02 00:28:06;;;;;;;3.83;1.30;;;;;;;24.39;42.56;101610.59;5024843;28;20020;-66
2022/08/02 00:30:32;;;;;;;2.80;1.50;;;;;;;24.39;41.86;101627.03;5024927;28;20025;-66
2022/08/02 00:32:58;;;;;;;1.42;1.27;;;;;;;24.35;42.25;101617.50;5042610;28;20032;-66
2022/08/02 00:35:23;;;;;;;2.50;1.20;;;;;;;24.36;42.96;101621.94;5041791;28;20107;-66
2022/08/02 00:37:48;;;;;;;3.20;1.45;;;;;;;24.33;42.61;101628.69;5042102;28;20025;-65
2022/08/02 00:40:14;;;;;;;1.80;1.52;;;;;;;24.34;42.06;101624.06;5026657;28;20128;-65
2022/08/02 00:42:39;;;;;;;1.98;1.25;;;;;;;24.30;42.45;101617.25;5041965;28;20056;-65
2022/08/02 00:45:05;;;;;;;10.75;1.50;;;;;;;24.27;42.89;101612.19;5033581;28;20025;-65
2022/08/02 00:47:31;;;;;;;6.13;1.60;;;;;;;24.28;42.71;101614.75;5040593;28;20021;-65
2022/08/02 00:49:56;;;;;;;9.73;1.73;;;;;;;24.25;42.45;101609.66;5043421;28;20029;-64
2022/08/02 00:52:25;;;;;;;3.85;1.20;;;;;;;24.25;42.59;101608.81;5031423;28;20036;-65
2022/08/02 00:54:50;;;;;;;2.75;1.20;;;;;;;24.25;42.40;101617.03;5025493;28;20375;-65
2022/08/02 00:57:15;;;;;;;1.48;1.38;;;;;;;24.24;42.92;101613.44;5042028;28;20025;-65
2022/08/02 00:59:41;;;;;;;2.75;1.38;;;;;;;24.25;42.82;101612.41;5041742;28;20033;-65
2022/08/02 01:02:07;;;;;;;1.50;1.13;;;;;;;24.25;42.73;101625.25;5042220;28;20048;-65
2022/08/02 01:04:33;;;;;;;4.18;1.30;;;;;;;24.22;43.27;101609.22;5042408;28;20022;-65
2022/08/02 01:06:59;;;;;;;4.00;1.45;;;;;;;24.21;42.50;101612.97;5040769;28;20037;-65
2022/08/02 01:09:25;;;;;;;3.50;1.40;;;;;;;24.20;42.53;101611.31;5042480;28;20104;-65
2022/08/02 01:11:50;;;;;;;3.17;1.52;;;;;;;24.19;43.14;101615.06;5041467;28;20109;-65
2022/08/02 01:14:16;;;;;;;1.52;1.40;;;;;;;24.18;43.23;101608.75;5041397;28;20052;-65
2022/08/02 01:16:49;;;;;;;1.60;1.33;;;;;;;24.19;43.20;101604.13;5025682;28;20033;-65
2022/08/02 01:19:32;;;;;;;4.97;2.63;;;;;;;24.17;42.87;101608.97;5041334;28;20087;-65
2022/08/02 01:22:05;;;;;;;2.53;1.33;;;;;;;24.13;43.18;101599.44;5025057;28;20495;-65
2022/08/02 01:24:55;;;;;;;1.58;1.30;;;;;;;24.10;42.85;101594.34;5026098;28;20033;-65
2022/08/02 01:27:32;;;;;;;8.30;1.40;;;;;;;24.06;42.75;101593.06;5043032;28;20027;-66
2022/08/02 01:29:59;;;;;;;2.10;1.13;;;;;;;24.02;43.08;101583.53;5041165;28;20048;-65
2022/08/02 01:32:28;;;;;;;6.78;1.50;;;;;;;23.99;43.24;101581.19;5041230;28;20029;-65
2022/08/02 01:35:06;;;;;;;4.25;1.30;;;;;;;23.97;43.83;101586.88;5022254;28;20033;-65
2022/08/02 01:37:35;;;;;;;1.55;1.20;;;;;;;23.99;43.82;101586.66;5025719;28;20119;-65
2022/08/02 01:40:07;;;;;;;2.58;1.38;;;;;;;23.95;43.41;101582.63;5042590;28;20382;-65
2022/08/02 01:42:32;;;;;;;3.70;1.70;;;;;;;23.96;43.41;101584.31;5041205;28;20017;-65
2022/08/02 01:44:59;;;;;;;7.10;1.67;;;;;;;23.96;42.98;101587.06;5041413;28;20627;-65
2022/08/02 01:47:30;;;;;;;3.45;1.17;;;;;;;23.93;43.79;101577.34;5023941;28;20017;-65
2022/08/02 01:49:57;;;;;;;4.60;1.60;;;;;;;23.94;42.97;101583.66;5040991;28;20025;-65
2022/08/02 01:52:25;;;;;;;2.13;1.55;;;;;;;23.90;43.20;101576.91;5041370;28;20021;-65
2022/08/02 01:55:10;;;;;;;7.57;1.60;;;;;;;23.91;43.01;101575.84;5024297;28;20021;-65
2022/08/02 01:57:39;;;;;;;5.03;1.30;;;;;;;23.88;43.48;101576.25;5040982;28;20531;-65
2022/08/02 02:00:07;;;;;;;3.33;1.10;;;;;;;23.88;43.55;101574.38;5041651;28;20071;-64
2022/08/02 02:02:35;;;;;;;1.60;1.30;;;;;;;23.87;43.85;101571.84;5039964;28;20052;-65
2022/08/02 02:05:01;;;;;;;6.32;1.50;;;;;;;23.86;43.43;101575.59;5040058;28;20084;-64
2022/08/02 02:07:28;;;;;;;3.67;1.60;;;;;;;23.82;43.54;101579.78;5009067;28;20029;-66
2022/08/02 02:09:55;;;;;;;7.15;1.15;;;;;;;23.80;43.61;101565.44;5040345;28;20063;-66
2022/08/02 02:12:21;;;;;;;4.80;1.83;;;;;;;23.84;44.10;101572.22;5041466;28;20029;-65
2022/08/02 02:14:47;;;;;;;2.45;1.50;;;;;;;23.80;43.83;101565.44;5040302;28;20032;-64
2022/08/02 02:17:14;;;;;;;2.20;1.73;;;;;;;23.80;44.08;101562.72;5039960;28;20049;-66
2022/08/02 02:19:40;;;;;;;3.08;1.67;;;;;;;23.75;43.54;101561.44;5040395;28;20510;-65
2022/08/02 02:22:06;;;;;;;4.75;1.20;;;;;;;23.75;43.56;101555.09;5040241;28;20058;-65
2022/08/02 02:24:32;;;;;;;1.40;1.30;;;;;;;23.72;44.02;101550.88;5014312;28;20124;-65
2022/08/02 02:27:00;;;;;;;3.28;1.60;;;;;;;23.69;43.67;101550.41;5024007;28;20075;-65
2022/08/02 02:29:27;;;;;;;3.70;1.25;;;;;;;23.65;43.43;101541.75;5040179;28;20017;-65
2022/08/02 02:31:54;;;;;;;2.08;1.15;;;;;;;23.60;44.37;101544.22;5039903;28;20025;-65
2022/08/02 02:34:31;;;;;;;3.08;1.50;;;;;;;23.61;44.14;101551.41;5040093;28;20025;-65
2022/08/02 02:37:02;;;;;;;2.47;1.90;;;;;;;23.57;43.64;101544.63;5040162;28;20044;-65
2022/08/02 02:39:29;;;;;;;3.35;1.67;;;;;;;23.52;43.77;101540.78;5040789;28;20028;-64
2022/08/02 02:41:57;;;;;;;7.43;2.20;;;;;;;23.47;43.89;101537.78;5060333;28;20022;-64
2022/08/02 02:44:22;;;;;;;2.45;1.65;;;;;;;23.45;43.37;101535.25;5043192;28;20024;-65
2022/08/02 02:46:51;;;;;;;6.50;1.33;;;;;;;23.40;43.99;101535.00;5028141;28;20029;-64
2022/08/02 02:49:18;;;;;;;3.47;1.45;;;;;;;23.39;44.19;101536.03;5043648;28;20539;-64
2022/08/02 02:51:44;;;;;;;6.32;2.65;;;;;;;23.38;43.61;101525.28;5028012;28;20029;-65
2022/08/02 02:54:10;;;;;;;2.55;1.95;;;;;;;23.35;44.00;101525.66;5026667;28;20052;-64
2022/08/02 02:56:37;;;;;;;3.72;2.05;;;;;;;23.33;43.64;101517.66;5043185;28;20071;-65
2022/08/02 02:59:02;;;;;;;2.03;1.85;;;;;;;23.31;44.63;101522.44;5042967;28;20055;-64
2022/08/02 03:01:29;;;;;;;2.38;1.60;;;;;;;23.28;44.16;101525.59;5028473;28;20056;-65
2022/08/02 03:03:56;;;;;;;5.05;1.40;;;;;;;23.25;44.45;101520.53;5041692;28;20017;-65
2022/08/02 03:06:21;;;;;;;4.90;1.70;;;;;;;23.22;43.94;101523.63;5028848;28;20116;-65
2022/08/02 03:08:47;;;;;;;2.95;1.77;;;;;;;23.21;43.90;101521.94;5035194;28;20112;-65
2022/08/02 03:11:13;;;;;;;4.03;1.95;;;;;;;23.20;44.71;101521.09;5017047;28;20102;-64
2022/08/02 03:13:39;;;;;;;3.78;1.63;;;;;;;23.19;44.02;101518.56;5042784;28;20036;-65
2022/08/02 03:16:04;;;;;;;2.60;1.60;;;;;;;23.18;44.88;101523.16;5042777;28;20033;-64
2022/08/02 03:18:37;;;;;;;7.65;2.40;;;;;;;23.15;44.11;101517.25;5034108;28;20414;-64
2022/08/02 03:21:04;;;;;;;;;;;;;;;23.17;43.88;101515.19;5026372;28;20103;-64
2022/08/02 03:23:29;;;;;;;2.22;1.50;;;;;;;23.15;43.93;101507.16;5025962;28;19939;-64
2022/08/02 03:25:55;;;;;;;6.47;1.70;;;;;;;23.11;44.62;101515.94;5043190;28;20120;-65
2022/08/02 03:28:20;;;;;;;2.40;1.60;;;;;;;23.08;44.43;101517.19;5043026;28;20147;-65
2022/08/02 03:30:45;;;;;;;2.28;1.27;;;;;;;23.05;44.47;101516.72;5026617;28;20483;-65
2022/08/02 03:33:11;;;;;;;2.35;1.30;;;;;;;23.03;44.91;101510.63;5032628;28;20029;-64
2022/08/02 03:35:37;;;;;;;7.50;1.77;;;;;;;22.99;44.52;101514.75;5035042;28;20032;-64
2022/08/02 03:38:04;;;;;;;3.00;1.65;;;;;;;22.98;44.27;101515.78;5033817;28;20379;-65
2022/08/02 03:40:29;;;;;;;5.70;2.08;;;;;;;22.95;44.30;101522.47;5043020;28;20033;-64
2022/08/02 03:42:55;;;;;;;6.35;2.50;;;;;;;22.96;44.17;101534.28;5032630;28;20029;-64
2022/08/02 03:45:21;;;;;;;6.07;1.70;;;;;;;22.92;45.18;101531.06;5042786;28;20111;-65
2022/08/02 03:47:46;;;;;;;3.25;1.52;;;;;;;22.91;44.69;101532.13;5026357;28;20025;-65
2022/08/02 03:50:12;;;;;;;2.20;1.45;;;;;;;22.88;44.71;101523.47;5042054;28;20022;-64
2022/08/02 03:52:40;;;;;;;3.50;2.08;;;;;;;22.87;45.08;101529.94;5043266;28;20025;-65
2022/08/02 03:55:06;;;;;;;2.50;1.60;;;;;;;22.82;44.75;101530.53;5042006;28;20108;-64
2022/08/02 03:57:32;;;;;;;6.22;2.45;;;;;;;22.79;44.87;101532.78;5026909;28;20017;-64
2022/08/02 03:59:57;;;;;;;2.50;1.70;;;;;;;22.79;44.45;101532.78;5026010;28;20040;-64
2022/08/02 04:02:22;;;;;;;2.95;1.88;;;;;;;22.75;44.65;101536.97;5042928;28;20487;-64
2022/08/02 04:04:48;;;;;;;4.80;2.03;;;;;;;22.74;44.77;101543.47;5041762;28;20033;-64
2022/08/02 04:07:13;;;;;;;8.23;2.25;;;;;;;22.72;45.17;101532.75;5041826;28;20032;-64
2022/08/02 04:09:38;;;;;;;4.68;2.35;;;;;;;22.70;45.48;101539.44;5042514;28;20021;-64
2022/08/02 04:12:04;;;;;;;5.15;1.85;;;;;;;22.70;45.48;101534.78;5043676;28;20029;-65
2022/08/02 04:14:30;;;;;;;4.70;1.98;;;;;;;22.68;44.66;101520.50;5026686;28;20033;-64
2022/08/02 04:16:58;;;;;;;7.07;2.10;;;;;;;22.68;45.01;101520.50;5025470;28;20365;-64
2022/08/02 04:19:31;;;;;;;3.60;2.42;;;;;;;22.71;45.00;101527.44;5042022;28;20123;-65
2022/08/02 04:21:59;;;;;;;4.70;1.88;;;;;;;22.72;44.98;101526.41;5057287;28;20024;-64
2022/08/02 04:24:27;;;;;;;5.00;2.35;;;;;;;22.72;44.47;101520.97;5058370;28;20132;-64
2022/08/02 04:26:54;;;;;;;4.25;1.75;;;;;;;22.72;45.45;101526.41;5041375;28;20025;-65
2022/08/02 04:29:21;;;;;;;5.22;1.88;;;;;;;22.67;45.66;101523.41;5041371;28;20044;-64
2022/08/02 04:31:46;;;;;;;2.40;2.20;;;;;;;22.73;45.53;101539.03;5041321;28;20494;-64
2022/08/02 04:34:12;;;;;;;5.53;2.38;;;;;;;22.76;45.51;101530.44;5041396;28;20017;-65
2022/08/02 04:36:37;;;;;;;3.90;1.88;;;;;;;22.83;44.61;101528.66;5033663;28;20028;-64
2022/08/02 04:39:03;;;;;;;4.38;2.40;;;;;;;22.87;44.96;101535.41;5032525;28;20033;-64
2022/08/02 04:41:42;;;;;;;2.63;2.00;;;;;;;22.93;44.94;101532.78;5015973;28;20104;-64
2022/08/02 04:44:08;;;;;;;4.13;1.88;;;;;;;22.98;45.83;101526.72;5042973;28;20021;-64
2022/08/02 04:46:35;;;;;;;6.05;2.53;;;;;;;23.03;45.34;101525.09;5042306;28;20032;-66
2022/08/02 04:49:00;;;;;;;3.35;1.80;;;;;;;23.13;45.25;101516.59;5040896;28;20476;-66
2022/08/02 04:51:25;;;;;;;7.63;2.40;;;;;;;23.25;45.47;101517.78;5042632;28;20115;-66
2022/08/02 04:53:51;;;;;;;6.13;2.92;;;;;;;23.34;45.19;101513.84;5041488;28;20051;-66
2022/08/02 04:56:16;;;;;;;3.00;2.35;;;;;;;23.43;45.84;101517.34;5043049;28;20026;-66
2022/08/02 04:58:41;;;;;;;4.60;2.38;;;;;;;23.53;45.67;101521.47;5041122;28;20099;-65
2022/08/02 05:01:07;;;;;;;6.68;2.53;;;;;;;23.66;44.73;101516.09;5041955;28;20025;-65
2022/08/02 05:03:32;;;;;;;5.55;2.72;;;;;;;23.77;44.60;101520.16;5041014;28;20111;-66
2022/08/02 05:05:59;;;;;;;7.85;2.67;;;;;;;23.88;45.16;101514.16;5042848;28;20025;-66
2022/08/02 05:08:24;;;;;;;3.28;2.30;;;;;;;24.02;44.84;101523.31;5026329;28;20027;-67
2022/08/02 05:10:50;;;;;;;3.22;2.35;;;;;;;24.14;45.13;101524.47;5041853;28;20026;-66
2022/08/02 05:13:15;;;;;;;5.88;2.65;;;;;;;24.25;44.87;101526.66;5041548;28;20524;-65
2022/08/02 05:15:41;;;;;;;6.05;3.20;;;;;;;24.28;45.03;101520.78;5026221;28;20463;-66
2022/08/02 05:18:06;;;;;;;2.17;1.98;;;;;;;24.37;45.04;101521.47;5040163;28;20141;-66
2022/08/02 05:20:31;;;;;;;7.95;2.58;;;;;;;24.43;44.63;101523.41;5025404;28;20021;-65
2022/08/02 05:22:57;;;;;;;5.28;3.03;;;;;;;24.59;45.03;101512.94;5040767;28;20414;-65
2022/08/02 05:25:22;;;;;;;5.38;2.35;;;;;;;24.74;45.01;101513.63;5041553;28;20487;-66
2022/08/02 05:27:48;;;;;;;13.20;2.92;;;;;;;24.89;44.61;101518.97;5040270;28;20489;-67
2022/08/02 05:30:13;;;;;;;4.38;2.20;;;;;;;24.99;45.14;101515.81;5041619;28;20028;-65
2022/08/02 05:32:56;;;;;;;3.92;2.53;;;;;;;25.14;44.67;101514.63;5040284;28;20433;-67
2022/08/02 05:35:23;;;;;;;6.10;2.75;;;;;;;25.29;44.60;101508.97;5042058;28;20060;-66
2022/08/02 05:37:50;;;;;;;4.85;2.60;;;;;;;25.47;44.44;101506.47;5041907;28;20029;-66
2022/08/02 05:40:16;;;;;;;5.80;2.60;;;;;;;25.65;44.28;101520.41;5040554;28;20056;-66
2022/08/02 05:42:41;;;;;;;3.75;2.38;;;;;;;25.84;43.83;101516.81;5040405;28;20135;-66
2022/08/02 05:45:07;;;;;;;3.40;2.72;;;;;;;26.03;44.03;101521.44;5040902;28;20028;-67
2022/08/02 05:47:33;;;;;;;5.53;2.70;;;;;;;26.22;43.54;101521.63;5039739;28;20078;-67
2022/08/02 05:49:58;;;;;;;3.28;2.88;;;;;;;26.40;43.48;101525.41;5041314;28;20123;-67
2022/08/02 05:52:25;;;;;;;3.83;2.53;;;;;;;26.63;43.48;101514.75;5041014;28;20071;-67
2022/08/02 05:55:07;;;;;;;3.70;2.65;;;;;;;26.89;42.84;101511.06;5039694;28;20025;-67
2022/08/02 05:57:36;;;;;;;3.42;2.58;;;;;;;27.14;42.59;101525.72;5039473;28;20099;-66
2022/08/02 06:00:08;;;;;;;6.20;2.90;;;;;;;27.38;42.54;101518.59;5039531;28;20113;-67
2022/08/02 06:02:52;;;;;;;3.05;1.70;;;;;;;27.60;43.06;101516.34;5039574;28;20100;-67
2022/08/02 06:05:21;;;;;;;2.47;2.05;;;;;;;27.83;42.92;101516.59;5040149;28;20487;-67
2022/08/02 06:07:48;;;;;;;3.08;2.35;;;;;;;28.09;42.49;101509.97;5040163;28;20032;-66
2022/08/02 06:10:15;;;;;;;5.03;2.30;;;;;;;28.34;42.09;101518.22;5038361;28;20585;-66
2022/08/02 06:12:49;;;;;;;5.10;2.42;;;;;;;28.59;42.25;101517.03;5040206;28;20027;-67
2022/08/02 06:15:16;;;;;;;5.72;3.03;;;;;;;28.78;42.14;101512.41;5040234;28;20021;-67
2022/08/02 06:17:42;;;;;;;7.38;3.03;;;;;;;28.90;41.65;101502.25;5040894;28;20155;-66
2022/08/02 06:20:10;;;;;;;3.30;2.72;;;;;;;29.07;41.77;101508.81;5040129;28;20128;-66
2022/08/02 06:22:39;;;;;;;6.65;2.45;;;;;;;29.18;41.11;101512.66;5040197;28;20383;-67
2022/08/02 06:25:05;;;;;;;8.50;2.47;;;;;;;29.33;40.75;101516.72;5041274;28;20060;-66
2022/08/02 06:27:31;;;;;;;6.63;2.90;;;;;;;29.48;40.69;101515.44;5039623;28;20025;-66
2022/08/02 06:29:57;;;;;;;3.40;2.50;;;;;;;29.61;40.62;101515.22;5023209;28;20028;-66
2022/08/02 06:32:22;;;;;;;3.00;2.30;;;;;;;29.80;40.61;101514.06;5040023;28;20438;-66
2022/08/02 06:34:48;;;;;;;5.70;2.50;;;;;;;29.93;40.40;101516.59;5024777;28;20041;-66
2022/08/02 06:37:36;;;;;;;2.38;1.83;;;;;;;30.11;40.63;101515.66;5023554;28;20021;-66
2022/08/02 06:40:17;;;;;;;3.33;2.05;;;;;;;30.26;40.01;101519.63;5042241;28;20494;-66
2022/08/02 06:42:44;;;;;;;3.17;2.20;;;;;;;30.44;39.76;101515.88;5040060;28;20035;-66
2022/08/02 06:45:09;;;;;;;7.70;2.20;;;;;;;30.56;39.73;101516.69;5039441;28;20514;-66
2022/08/02 06:47:35;;;;;;;5.05;2.50;;;;;;;30.65;39.61;101522.69;5022791;28;20025;-66
2022/08/02 06:50:00;;;;;;;2.95;1.98;;;;;;;30.76;39.18;101530.13;5040981;28;20024;-66
2022/08/02 06:52:27;;;;;;;2.63;2.17;;;;;;;30.89;39.24;101525.13;5040680;28;20022;-67
2022/08/02 06:54:54;;;;;;;2.15;1.95;;;;;;;31.02;38.97;101529.56;5039150;28;20017;-66
2022/08/02 06:57:20;;;;;;;7.20;2.05;;;;;;;31.11;39.02;101522.56;5039121;28;20064;-66
2022/08/02 06:59:45;;;;;;;7.28;2.80;;;;;;;31.25;38.69;101521.16;5039151;28;20025;-66
2022/08/02 07:02:10;;;;;;;3.03;2.30;;;;;;;31.38;38.64;101523.59;5040734;28;20027;-67
2022/08/02 07:04:36;;;;;;;9.05;3.10;;;;;;;31.60;38.61;101521.81;5025045;28;20032;-66
2022/08/02 07:07:01;;;;;;;4.43;2.17;;;;;;;31.88;38.44;101520.91;5040027;28;20025;-66
2022/08/02 07:09:27;;;;;;;4.32;2.13;;;;;;;32.20;37.96;101523.91;5040507;28;20025;-67
2022/08/02 07:11:52;;;;;;;4.22;2.13;;;;;;;32.06;38.23;101528.13;5025055;28;20036;-67
2022/08/02 07:14:17;;;;;;;4.75;2.45;;;;;;;31.98;38.33;101520.22;5040965;28;20104;-67
2022/08/02 07:16:43;;;;;;;6.03;2.05;;;;;;;31.85;38.62;101517.78;5029202;28;20375;-67
2022/08/02 07:19:09;;;;;;;3.15;2.22;;;;;;;31.88;38.47;101517.28;5023061;28;20067;-67
2022/08/02 07:21:34;;;;;;;3.78;2.20;;;;;;;32.14;37.60;101522.16;5039649;28;20432;-67
2022/08/02 07:23:59;;;;;;;3.17;2.55;;;;;;;32.19;37.53;101525.03;5039497;28;20032;-67
2022/08/02 07:26:25;;;;;;;6.20;2.20;;;;;;;32.19;38.20;101519.47;5041286;28;20025;-67
2022/08/02 07:28:50;;;;;;;2.30;2.08;;;;;;;32.29;37.61;101525.16;5043669;28;20021;-67
2022/08/02 07:31:15;;;;;;;2.85;2.60;;;;;;;32.23;38.04;101520.63;5042390;28;20045;-66
2022/08/02 07:33:41;;;;;;;3.05;2.13;;;;;;;32.38;37.33;101523.63;5042797;28;20087;-66
2022/08/02 07:36:07;;;;;;;5.03;2.22;;;;;;;32.44;37.68;101521.75;5041479;28;20068;-66
2022/08/02 07:38:33;;;;;;;7.45;2.25;;;;;;;32.70;37.45;101509.91;5023692;28;20474;-67
2022/08/02 07:40:58;;;;;;;6.32;2.03;;;;;;;32.96;36.46;101513.81;5040524;28;20025;-67
2022/08/02 07:43:23;;;;;;;3.88;2.03;;;;;;;33.19;36.35;101508.84;5039640;28;20475;-66
2022/08/02 07:45:49;;;;;;;2.25;1.85;;;;;;;33.42;36.40;101513.22;5041453;28;20503;-67
2022/08/02 07:48:14;;;;;;;4.55;2.38;;;;;;;33.60;36.73;101510.09;5038296;28;20364;-67
2022/08/02 07:50:40;;;;;;;3.35;2.40;;;;;;;33.72;36.42;101502.41;5038603;28;20036;-66
2022/08/02 07:53:05;;;;;;;3.10;2.28;;;;;;;33.89;35.37;101507.81;5027167;28;20040;-66
2022/08/02 07:55:31;;;;;;;2.88;1.80;;;;;;;34.03;36.04;101508.19;5043170;28;20068;-66
2022/08/02 07:57:56;;;;;;;3.10;2.22;;;;;;;34.15;35.57;101497.72;5041565;28;20072;-67
2022/08/02 08:00:21;;;;;;;6.13;2.67;;;;;;;34.27;36.38;101503.91;5042277;28;20104;-67
2022/08/02 08:02:47;;;;;;;3.17;2.38;;;;;;;34.48;35.89;101512.09;5040734;28;20074;-67
2022/08/02 08:05:13;;;;;;;2.20;1.75;;;;;;;34.57;35.03;101511.56;5042634;28;20032;-67
2022/08/02 08:07:38;;;;;;;5.38;2.35;;;;;;;34.61;35.21;101505.22;5040906;28;20030;-66
2022/08/02 08:10:04;;;;;;;4.45;2.20;;;;;;;34.80;34.81;101503.63;5040491;28;20038;-66
2022/08/02 08:12:30;;;;;;;7.68;2.13;;;;;;;35.04;34.43;101499.22;5043302;28;20021;-66
2022/08/02 08:14:55;;;;;;;2.22;1.50;;;;;;;35.28;34.44;101505.16;5041038;28;20506;-67
2022/08/02 08:17:21;;;;;;;4.85;2.50;;;;;;;35.43;34.56;101498.78;5040045;28;20037;-67
2022/08/02 08:19:46;;;;;;;3.90;1.88;;;;;;;35.57;34.33;101502.69;5041073;28;20053;-67
2022/08/02 08:22:12;;;;;;;4.32;2.00;;;;;;;35.68;33.90;101504.34;5041207;28;20123;-67
2022/08/02 08:24:37;;;;;;;2.25;1.65;;;;;;;35.75;33.80;101490.97;5032898;28;20493;-67
2022/08/02 08:27:04;;;;;;;4.20;1.48;;;;;;;35.86;33.63;101495.44;5041238;28;20029;-67
2022/08/02 08:29:29;;;;;;;1.48;1.35;;;;;;;35.89;33.89;101494.03;5042370;28;20029;-66
2022/08/02 08:31:55;;;;;;;2.25;1.45;;;;;;;35.96;33.25;101489.00;5040932;28;20051;-67
2022/08/02 08:34:22;;;;;;;3.42;1.65;;;;;;;36.05;32.65;101488.16;5041601;28;20028;-67
2022/08/02 08:36:48;;;;;;;2.13;1.80;;;;;;;36.13;32.85;101489.53;5041741;28;20021;-67
2022/08/02 08:39:13;;;;;;;1.50;1.38;;;;;;;36.16;33.21;101484.22;5042254;28;20506;-67
2022/08/02 08:41:41;;;;;;;3.63;1.45;;;;;;;36.24;32.53;101484.78;5041555;28;20029;-67
2022/08/02 08:44:07;;;;;;;1.40;1.30;;;;;;;36.38;32.76;101483.06;5040282;28;20032;-67
2022/08/02 08:46:35;;;;;;;3.10;1.50;;;;;;;36.60;32.24;101489.97;5038509;28;20029;-67
2022/08/02 08:49:22;;;;;;;2.45;0.98;;;;;;;36.70;32.11;101486.28;5038772;28;20024;-67
2022/08/02 08:51:50;;;;;;;4.75;1.30;;;;;;;36.82;32.47;101486.78;5038993;28;20059;-67
2022/08/02 08:54:16;;;;;;;1.95;1.00;;;;;;;36.98;32.04;101490.34;5040052;28;20072;-67
2022/08/02 08:56:42;;;;;;;1.27;1.13;;;;;;;37.03;31.72;101484.72;5040200;28;20033;-67
2022/08/02 08:59:09;;;;;;;2.80;1.52;;;;;;;37.06;31.58;101482.19;5038675;28;20021;-66
2022/08/02 09:01:35;;;;;;;2.70;1.17;;;;;;;37.16;31.85;101486.91;5025207;28;20029;-67
2022/08/02 09:04:00;;;;;;;2.53;1.08;;;;;;;37.27;31.36;101483.72;5015214;28;20070;-67
2022/08/02 09:06:26;;;;;;;2.72;1.20;;;;;;;37.46;31.23;101474.66;5030998;28;20033;-67
2022/08/02 09:08:52;;;;;;;2.72;1.05;;;;;;;37.64;31.33;101477.56;5041431;28;20476;-67
2022/08/02 09:11:21;;;;;;;3.50;1.20;;;;;;;37.74;30.93;101482.25;5041252;28;20041;-67
2022/08/02 09:13:53;;;;;;;1.38;1.10;;;;;;;37.72;30.99;101478.88;5041306;28;20475;-67
2022/08/02 09:16:28;;;;;;;;;;;;;;;37.82;30.89;101476.00;5041611;28;20037;-67
2022/08/02 09:18:54;;;;;;;1.10;0.88;;;;;;;37.90;30.98;101478.19;5040925;28;20373;-67
2022/08/02 09:21:19;;;;;;;1.27;0.80;;;;;;;37.99;30.73;101490.41;5040375;28;20131;-67
2022/08/02 09:23:47;;;;;;;1.08;0.98;;;;;;;38.14;30.87;101479.03;5035688;28;20399;-67
2022/08/02 09:26:20;;;;;;;1.50;0.55;;;;;;;38.28;30.27;101477.19;5039679;28;20033;-67
2022/08/02 09:28:49;;;;;;;0.73;0.70;;;;;;;38.40;30.54;101486.06;5040909;28;20442;-67
2022/08/02 09:31:19;;;;;;;1.70;0.95;;;;;;;38.47;29.39;101473.66;5057089;28;20430;-67
2022/08/02 09:33:50;;;;;;;3.13;0.90;;;;;;;38.52;29.12;101476.38;5024300;28;20021;-67
2022/08/02 09:36:16;;;;;;;1.00;0.75;;;;;;;38.62;29.40;101487.44;5039008;28;20044;-67
2022/08/02 09:38:58;;;;;;;0.88;0.80;;;;;;;38.74;29.29;101479.44;5020583;28;20024;-68
2022/08/02 09:41:29;;;;;;;1.60;0.88;;;;;;;38.47;29.80;101477.28;5038797;28;20044;-68
2022/08/02 09:43:56;;;;;;;6.53;1.37;;;;;;;38.53;29.42;101478.06;5025364;28;20024;-67
2022/08/02 09:46:24;;;;;;;1.02;0.80;;;;;;;38.63;29.32;101470.34;5024779;28;20156;-67
2022/08/02 09:48:51;;;;;;;2.42;1.00;;;;;;;38.44;29.41;101478.69;5039325;28;20513;-67
2022/08/02 09:51:18;;;;;;;3.17;1.02;;;;;;;38.24;29.25;101470.53;5039080;28;20113;-67
2022/08/02 09:53:43;;;;;;;2.65;1.27;;;;;;;38.44;29.52;101470.28;5039749;28;20442;-67
2022/08/02 09:56:08;;;;;;;1.08;0.80;;;;;;;38.72;29.58;101471.34;5039147;28;20021;-67
2022/08/02 09:58:37;;;;;;;0.73;0.68;;;;;;;39.03;28.99;101474.56;5038977;28;20025;-67
2022/08/02 10:01:02;;;;;;;2.78;0.90;;;;;;;39.39;28.16;101472.91;5039762;28;20503;-67
2022/08/02 10:03:28;;;;;;;1.67;1.33;;;;;;;39.59;28.23;101464.09;5041140;28;20112;-68
2022/08/02 10:05:56;;;;;;;1.50;1.40;;;;;;;39.55;28.46;101463.06;5039891;28;20053;-68
2022/08/02 10:08:21;;;;;;;3.70;1.00;;;;;;;39.27;28.77;101471.69;5023721;28;20562;-67
2022/08/02 10:10:47;;;;;;;1.10;1.00;;;;;;;39.98;28.43;101466.50;5024331;28;20112;-67
2022/08/02 10:13:13;;;;;;;1.23;1.13;;;;;;;41.09;27.12;101463.34;5029525;28;20043;-68
2022/08/02 10:15:39;;;;;;;0.80;0.80;;;;;;;41.89;26.35;101462.44;5039446;28;20021;-67
2022/08/02 10:18:05;;;;;;;1.05;0.90;;;;;;;41.82;26.44;101453.63;5039255;28;20396;-66
2022/08/02 10:20:43;;;;;;;1.33;0.93;;;;;;;41.71;26.19;101465.13;5039723;28;20021;-67
2022/08/02 10:23:12;;;;;;;1.45;1.20;;;;;;;41.57;25.84;101464.38;5039903;28;20017;-67
2022/08/02 10:25:38;;;;;;;3.25;1.10;;;;;;;41.09;27.21;101468.97;5041277;28;20108;-67
2022/08/02 10:28:06;;;;;;;1.20;1.15;;;;;;;40.77;27.28;101460.69;5039520;28;20108;-67
2022/08/02 10:30:33;;;;;;;2.75;1.10;;;;;;;40.39;27.44;101460.09;5040647;28;20032;-67
2022/08/02 10:32:59;;;;;;;1.48;0.77;;;;;;;40.79;26.77;101459.22;5029626;28;20055;-67
2022/08/02 10:35:25;;;;;;;1.02;0.90;;;;;;;40.33;27.46;101450.13;5040016;28;20025;-66
2022/08/02 10:37:55;;;;;;;1.38;1.05;;;;;;;40.20;26.56;101457.41;5039318;28;20025;-66
2022/08/02 10:40:25;;;;;;;1.67;0.98;;;;;;;39.93;27.59;101451.72;5039893;28;20025;-67
2022/08/02 10:42:51;;;;;;;0.98;0.75;;;;;;;40.32;27.26;101448.44;5025160;28;20479;-67
2022/08/02 10:45:19;;;;;;;1.20;0.88;;;;;;;39.96;27.05;101453.91;5038473;28;20028;-67
2022/08/02 10:48:08;;;;;;;2.35;1.30;;;;;;;40.10;26.98;101446.38;5034711;28;20018;-67
2022/08/02 10:50:45;;;;;;;2.17;1.20;;;;;;;40.47;27.14;101445.31;5035395;28;20021;-67
2022/08/02 10:53:40;;;;;;;1.10;0.80;;;;;;;40.46;26.91;101438.03;5035820;28;20056;-67
2022/08/02 10:56:05;;;;;;;2.22;1.05;;;;;;;40.95;25.88;101440.06;5041530;28;20045;-68
2022/08/02 10:58:32;;;;;;;1.67;1.50;;;;;;;41.29;25.80;101439.50;5018322;28;20164;-67
2022/08/02 11:01:02;;;;;;;1.73;1.17;;;;;;;41.53;25.67;101428.75;5020711;28;20045;-67
2022/08/02 11:03:28;;;;;;;2.25;0.95;;;;;;;41.65;25.38;101438.28;5042240;28;20048;-67
2022/08/02 11:06:13;;;;;;;2.38;1.00;;;;;;;41.26;26.20;101426.91;5042043;28;20025;-67
2022/08/02 11:08:38;;;;;;;1.80;1.10;;;;;;;41.08;26.25;101436.34;5044171;28;20024;-67
2022/08/02 11:11:12;;;;;;;2.42;1.02;;;;;;;40.89;25.99;101430.88;5037720;28;20497;-67
2022/08/02 11:14:07;;;;;;;1.42;0.93;;;;;;;40.45;26.80;101423.16;5050248;28;20029;-67
2022/08/02 11:16:55;;;;;;;0.90;0.90;;;;;;;40.50;26.23;101428.69;5041023;28;20033;-67
2022/08/02 11:19:27;;;;;;;1.58;1.10;;;;;;;40.53;25.77;101422.44;5041499;28;20061;-67
2022/08/02 11:22:04;;;;;;;0.85;0.85;;;;;;;40.56;25.78;101421.81;5040152;28;20041;-67
2022/08/02 11:24:31;;;;;;;1.10;1.00;;;;;;;40.53;26.08;101428.06;5041219;28;20029;-67
2022/08/02 11:26:59;;;;;;;3.42;1.10;;;;;;;40.55;26.00;101431.38;5039831;28;20037;-68
2022/08/02 11:29:45;;;;;;;1.63;1.08;;;;;;;40.41;25.76;101433.34;5039711;28;20014;-67